Buoy 16555

sailwx.info

Track history (hours):
 
Tides and Currents Weather Stations Pressure Air Temp Water Temp Dewpoint Dewpoint Depression Visibility Wind Speed Wind Dir Waves Ship Positions

Drifting buoy 16555

Last reported at 2017-Jan-19 22:00 UTC. Time now 2017-Jan-19 23:37 UTC.
Position S 28°11' E 087°47'.

Barometer 1018.7 mb
Water temperature 22.9 ° C

Date/timePositionNaut miles runAvg speedWind from/ knotsBaromVisibWave heightAir tempDewpointWater temp
2017-Jan-19 22:00S 28°11' E 087°47'2 0.6 1018.7 22.9
2017-Jan-19 19:00S 28°13' E 087°47'2 2.4 1019.3 22.9
2017-Jan-19 18:00S 28°16' E 087°47'1 0.4 1019.8 22.9
2017-Jan-19 16:00S 28°16' E 087°48'1 1.2 1020.5 22.9
2017-Jan-19 15:00S 28°17' E 087°48'1 0.3 1020.5 23.0
2017-Jan-19 13:00S 28°18' E 087°48'2 1.8 1020.2 23.1
2017-Jan-19 12:00S 28°20' E 087°48'1 0.5 1020.2 23.2
2017-Jan-19 11:00S 28°20' E 087°49'1 1.2 1020.3 23.3
2017-Jan-19 10:00S 28°21' E 087°49'0 0.0 1020.8 23.2
2017-Jan-19 09:00S 28°21' E 087°49'4 0.8 1021.3 23.2
2017-Jan-19 04:00S 28°25' E 087°47'1 0.8 1023.6 22.7
2017-Jan-19 03:00S 28°25' E 087°48'1 0.4 1023.9 22.6
2017-Jan-19 01:00S 28°26' E 087°47'1 0.8 1023.9 22.6
2017-Jan-19 00:00S 28°26' E 087°48'0 0.0 1023.7 22.6
2017-Jan-18 23:00S 28°26' E 087°48'1 0.6 1023.4 22.6
2017-Jan-18 21:00S 28°27' E 087°49'1 0.8 1023.1 22.6
2017-Jan-18 20:00S 28°28' E 087°50'0 0.0 1023.3 22.7
2017-Jan-18 19:00S 28°28' E 087°50'2 1.6 1023.6 22.7
2017-Jan-18 18:00S 28°29' E 087°51'1 0.3 1023.9 22.7
2017-Jan-18 16:00S 28°29' E 087°51'0 0.0 1024.4 22.7
2017-Jan-18 15:00S 28°29' E 087°51'1 1.2 1024.3 22.7
2017-Jan-18 14:00S 28°31' E 087°51'0 0.0 1023.8 22.8
2017-Jan-18 13:00S 28°31' E 087°51'1 1.2 1023.4 22.8
2017-Jan-18 12:00S 28°31' E 087°52'0 0.0 1023.0 22.8
2017-Jan-18 11:00S 28°31' E 087°52'2 1.0 1023.0 22.9
2017-Jan-18 09:00S 28°33' E 087°53'0 0.0 1023.6 22.9
2017-Jan-18 08:00S 28°33' E 087°53'1 0.3 1024.1 22.8
2017-Jan-18 04:00S 28°33' E 087°55'1 1.3 1025.2 22.6
2017-Jan-18 03:00S 28°34' E 087°54'1 0.3 1025.4 22.6
2017-Jan-18 01:00S 28°34' E 087°55'0 0.0 1025.2 22.5
2017-Jan-18 00:00S 28°34' E 087°55'1 0.5 1024.7 22.6
2017-Jan-17 22:00S 28°34' E 087°56'0 0.0 1024.0 22.6
2017-Jan-17 21:00S 28°34' E 087°56'1 1.1 1023.7 22.6
2017-Jan-17 20:00S 28°34' E 087°57'2 0.8 1023.8 22.6
2017-Jan-17 18:00S 28°35' E 087°59'1 0.5 1024.5 22.6
2017-Jan-17 17:00S 28°35' E 087°59'0 0.0 1024.4 22.6
2017-Jan-17 16:00S 28°35' E 087°59'3 1.0 1024.5 22.7
2017-Jan-17 13:00S 28°36' E 088°02'0 0.0 1023.3 22.7
2017-Jan-17 12:00S 28°36' E 088°02'1 0.6 1023.0 22.7
2017-Jan-17 11:00S 28°37' E 088°02'2 2.0 1023.0 22.8
2017-Jan-17 10:00S 28°38' E 088°04'0 0.0 1023.2 22.8
2017-Jan-17 09:00S 28°38' E 088°04'2 0.5 1023.5 22.8
2017-Jan-17 04:00S 28°39' E 088°07'0 0.0 1024.7 22.6
2017-Jan-17 03:00S 28°39' E 088°07'0 0.0 1024.5 22.6
2017-Jan-17 01:00S 28°39' E 088°07'0 0.0 1023.8 22.6
2017-Jan-17 00:00S 28°39' E 088°07'1 1.1 1023.2 22.7
2017-Jan-16 23:00S 28°39' E 088°08'2 0.8 1022.7 22.7
2017-Jan-16 21:00S 28°38' E 088°10'0 0.0 1022.5 22.7
2017-Jan-16 20:00S 28°38' E 088°10'3 1.1 1022.7 22.7
2017-Jan-16 17:00S 28°40' E 088°13'2 0.8 1024.4 22.8
2017-Jan-16 15:00S 28°40' E 088°15'0 0.0 1024.5 22.8
2017-Jan-16 14:00S 28°40' E 088°15'1 0.6 1024.2 22.8
2017-Jan-16 12:00S 28°40' E 088°16'6 1.4 1023.1 22.9
2017-Jan-16 08:00S 28°46' E 088°19'2 0.4 1023.9 22.9
2017-Jan-16 02:00S 28°44' E 088°21'0 0.0 1025.4 22.9
2017-Jan-16 01:00S 28°44' E 088°21'1 0.5 1025.0 22.9
2017-Jan-16 00:00S 28°44' E 088°22'0 0.0 1024.6 22.9
2017-Jan-15 23:00S 28°44' E 088°22'2 0.8 1024.4 22.9
2017-Jan-15 21:00S 28°44' E 088°23'1 1.1 1023.8 22.9
2017-Jan-15 20:00S 28°44' E 088°25'5 1.1 1024.3 22.9
2017-Jan-15 16:00S 28°46' E 088°29'0 0.0 1024.7 22.9
2017-Jan-15 15:00S 28°46' E 088°29'1 0.5 1024.4 22.9
2017-Jan-15 14:00S 28°46' E 088°30'2 1.2 1023.7 22.9
2017-Jan-15 12:00S 28°47' E 088°32'0 0.0 1022.7 23.0
2017-Jan-15 11:00S 28°47' E 088°32'1 0.8 1022.4 23.0
2017-Jan-15 10:00S 28°48' E 088°33'8 1.0 1022.3 23.0
2017-Jan-15 02:00S 28°53' E 088°40'1 1.1 1023.5 22.9
2017-Jan-15 01:00S 28°53' E 088°41'0 0.0 1023.3 22.9
2017-Jan-15 00:00S 28°53' E 088°41'3 1.0 1022.6 23.0
2017-Jan-14 21:00S 28°55' E 088°44'0 0.0 1020.7 23.0
2017-Jan-14 20:00S 28°55' E 088°44'7 1.3 1021.0 23.1
2017-Jan-14 15:00S 28°59' E 088°50'1 1.3 1020.7 23.2
2017-Jan-14 14:00S 29°00' E 088°50'2 0.7 1020.4 23.2
2017-Jan-14 11:00S 29°01' E 088°52'1 0.5 1018.7 23.3
2017-Jan-14 10:00S 29°01' E 088°53'1 0.6 1018.5 23.3
2017-Jan-14 09:00S 29°02' E 088°53'8 0.9 1018.5 23.4
2017-Jan-14 01:00S 29°07' E 088°59'0 0.0 1016.7 23.2
2017-Jan-14 00:00S 29°07' E 088°59'2 1.0 1016.1 23.2
2017-Jan-13 22:00S 29°08' E 089°01'2 1.7 1014.8 23.2
2017-Jan-13 21:00S 29°09' E 089°02'0 0.0 1014.4 23.2
2017-Jan-13 20:00S 29°09' E 089°02'6 1.1 1014.4 23.2
2017-Jan-13 14:00S 29°14' E 089°07'0 0.0 1014.5 23.2
2017-Jan-13 12:00S 29°14' E 089°07'3 1.3 1013.9 23.2
2017-Jan-13 10:00S 29°16' E 089°08'4 0.6 1013.7 23.3
2017-Jan-13 04:00S 29°19' E 089°11'2 1.0 1015.4 23.1
2017-Jan-13 02:00S 29°20' E 089°13'0 0.0 1015.6 22.9
2017-Jan-13 01:00S 29°20' E 089°13'1 0.6 1015.5 22.9
2017-Jan-13 00:00S 29°21' E 089°13'1 0.6 1015.3 22.9
2017-Jan-12 23:00S 29°22' E 089°13'1 0.6 1014.9 22.9
2017-Jan-12 22:00S 29°21' E 089°13'2 1.6 1014.6 22.9
2017-Jan-12 21:00S 29°22' E 089°14'2 0.5 1014.7 22.9
2017-Jan-12 17:00S 29°23' E 089°16'1 0.6 1017.0 23.1
2017-Jan-12 16:00S 29°24' E 089°16'1 0.5 1017.2 23.2
2017-Jan-12 15:00S 29°24' E 089°16'0 0.0 1017.3 23.2
2017-Jan-12 14:00S 29°24' E 089°16'2 1.2 1017.1 23.4
2017-Jan-12 12:00S 29°26' E 089°18'2 1.8 1016.5 23.5
2017-Jan-12 11:00S 29°28' E 089°18'0 0.0 1016.5 23.5
2017-Jan-12 10:00S 29°28' E 089°18'3 2.9 1016.8 23.5
2017-Jan-12 09:00S 29°30' E 089°20'0 0.0 1017.3 23.4
2017-Jan-12 04:00S 29°30' E 089°20'1 1.3 1020.2 22.9
2017-Jan-12 03:00S 29°31' E 089°20'1 0.3 1020.1 22.9
2017-Jan-12 01:00S 29°32' E 089°20'0 0.0 1019.9 22.8
2017-Jan-12 00:00S 29°32' E 089°20'0 0.0 1019.6 22.8
2017-Jan-11 23:00S 29°32' E 089°20'4 0.7 1019.1 22.9
2017-Jan-11 18:00S 29°34' E 089°23'0 0.0 1020.6 22.9
2017-Jan-11 17:00S 29°34' E 089°23'1 0.8 1021.2 22.9
2017-Jan-11 16:00S 29°35' E 089°24'0 0.0 1021.3 22.9
2017-Jan-11 15:00S 29°35' E 089°24'2 0.8 1021.2 23.0
2017-Jan-11 13:00S 29°36' E 089°25'0 0.0 1020.5 23.2
2017-Jan-11 12:00S 29°36' E 089°25'1 1.2 1019.9 23.2
2017-Jan-11 11:00S 29°37' E 089°25'0 0.0 1019.7 23.2
2017-Jan-11 10:00S 29°37' E 089°25'2 2.5 1019.6 23.3
2017-Jan-11 09:00S 29°40' E 089°26'1 0.1 1019.6 23.3
2017-Jan-11 03:00S 29°40' E 089°26'2 1.6 1020.1 23.4
2017-Jan-11 02:00S 29°40' E 089°28'1 1.0 1019.7 23.4
2017-Jan-11 01:00S 29°40' E 089°26'1 0.6 1019.4 23.4
2017-Jan-11 00:00S 29°41' E 089°26'1 0.4 1019.0 23.3
2017-Jan-10 22:00S 29°41' E 089°27'0 0.0 1018.3 23.3
2017-Jan-10 21:00S 29°41' E 089°27'1 0.7 1018.4 23.3
2017-Jan-10 19:00S 29°43' E 089°28'1 0.6 1019.1 23.3
2017-Jan-10 18:00S 29°43' E 089°28'1 0.7 1019.7 23.4
2017-Jan-10 16:00S 29°44' E 089°28'2 0.6 1020.2 23.6
2017-Jan-10 13:00S 29°46' E 089°28'0 0.0 1019.0 24.6
2017-Jan-10 12:00S 29°46' E 089°28'1 1.2 1018.6 24.6
2017-Jan-10 11:00S 29°47' E 089°28'3 0.4 1018.6 26.2
2017-Jan-10 03:00S 29°50' E 089°26'1 0.7 1019.8 23.4
2017-Jan-10 01:00S 29°51' E 089°26'0 0.0 1019.4 23.2
2017-Jan-10 00:00S 29°51' E 089°26'0 0.0 1019.1 23.3
2017-Jan-09 23:00S 29°51' E 089°26'1 0.6 1018.6 23.3
2017-Jan-09 22:00S 29°52' E 089°26'   1018.6 23.3
Track history (hours):
 
Tides and Currents Weather Stations Pressure Air Temp Water Temp Dewpoint Dewpoint Depression Visibility Wind Speed Wind Dir Waves Ship Positions

Drifting buoy 16555

Last reported at 2017-Jan-19 22:00 UTC. Time now 2017-Jan-19 23:37 UTC.
Position S 28°11' E 087°47'.

Barometer 1018.7 mb
Water temperature 22.9 ° C

Date/timePositionNaut miles runAvg speedWind from/ knotsBaromVisibWave heightAir tempDewpointWater temp
2017-Jan-19 22:00S 28°11' E 087°47'2 0.6 1018.7 22.9
2017-Jan-19 19:00S 28°13' E 087°47'2 2.4 1019.3 22.9
2017-Jan-19 18:00S 28°16' E 087°47'1 0.4 1019.8 22.9
2017-Jan-19 16:00S 28°16' E 087°48'1 1.2 1020.5 22.9
2017-Jan-19 15:00S 28°17' E 087°48'1 0.3 1020.5 23.0
2017-Jan-19 13:00S 28°18' E 087°48'2 1.8 1020.2 23.1
2017-Jan-19 12:00S 28°20' E 087°48'1 0.5 1020.2 23.2
2017-Jan-19 11:00S 28°20' E 087°49'1 1.2 1020.3 23.3
2017-Jan-19 10:00S 28°21' E 087°49'0 0.0 1020.8 23.2
2017-Jan-19 09:00S 28°21' E 087°49'4 0.8 1021.3 23.2
2017-Jan-19 04:00S 28°25' E 087°47'1 0.8 1023.6 22.7
2017-Jan-19 03:00S 28°25' E 087°48'1 0.4 1023.9 22.6
2017-Jan-19 01:00S 28°26' E 087°47'1 0.8 1023.9 22.6
2017-Jan-19 00:00S 28°26' E 087°48'0 0.0 1023.7 22.6
2017-Jan-18 23:00S 28°26' E 087°48'1 0.6 1023.4 22.6
2017-Jan-18 21:00S 28°27' E 087°49'1 0.8 1023.1 22.6
2017-Jan-18 20:00S 28°28' E 087°50'0 0.0 1023.3 22.7
2017-Jan-18 19:00S 28°28' E 087°50'2 1.6 1023.6 22.7
2017-Jan-18 18:00S 28°29' E 087°51'1 0.3 1023.9 22.7
2017-Jan-18 16:00S 28°29' E 087°51'0 0.0 1024.4 22.7
2017-Jan-18 15:00S 28°29' E 087°51'1 1.2 1024.3 22.7
2017-Jan-18 14:00S 28°31' E 087°51'0 0.0 1023.8 22.8
2017-Jan-18 13:00S 28°31' E 087°51'1 1.2 1023.4 22.8
2017-Jan-18 12:00S 28°31' E 087°52'0 0.0 1023.0 22.8
2017-Jan-18 11:00S 28°31' E 087°52'2 1.0 1023.0 22.9
2017-Jan-18 09:00S 28°33' E 087°53'0 0.0 1023.6 22.9
2017-Jan-18 08:00S 28°33' E 087°53'1 0.3 1024.1 22.8
2017-Jan-18 04:00S 28°33' E 087°55'1 1.3 1025.2 22.6
2017-Jan-18 03:00S 28°34' E 087°54'1 0.3 1025.4 22.6
2017-Jan-18 01:00S 28°34' E 087°55'0 0.0 1025.2 22.5
2017-Jan-18 00:00S 28°34' E 087°55'1 0.5 1024.7 22.6
2017-Jan-17 22:00S 28°34' E 087°56'0 0.0 1024.0 22.6
2017-Jan-17 21:00S 28°34' E 087°56'1 1.1 1023.7 22.6
2017-Jan-17 20:00S 28°34' E 087°57'2 0.8 1023.8 22.6
2017-Jan-17 18:00S 28°35' E 087°59'1 0.5 1024.5 22.6
2017-Jan-17 17:00S 28°35' E 087°59'0 0.0 1024.4 22.6
2017-Jan-17 16:00S 28°35' E 087°59'3 1.0 1024.5 22.7
2017-Jan-17 13:00S 28°36' E 088°02'0 0.0 1023.3 22.7
2017-Jan-17 12:00S 28°36' E 088°02'1 0.6 1023.0 22.7
2017-Jan-17 11:00S 28°37' E 088°02'2 2.0 1023.0 22.8
2017-Jan-17 10:00S 28°38' E 088°04'0 0.0 1023.2 22.8
2017-Jan-17 09:00S 28°38' E 088°04'2 0.5 1023.5 22.8
2017-Jan-17 04:00S 28°39' E 088°07'0 0.0 1024.7 22.6
2017-Jan-17 03:00S 28°39' E 088°07'0 0.0 1024.5 22.6
2017-Jan-17 01:00S 28°39' E 088°07'0 0.0 1023.8 22.6
2017-Jan-17 00:00S 28°39' E 088°07'1 1.1 1023.2 22.7
2017-Jan-16 23:00S 28°39' E 088°08'2 0.8 1022.7 22.7
2017-Jan-16 21:00S 28°38' E 088°10'0 0.0 1022.5 22.7
2017-Jan-16 20:00S 28°38' E 088°10'3 1.1 1022.7 22.7
2017-Jan-16 17:00S 28°40' E 088°13'2 0.8 1024.4 22.8
2017-Jan-16 15:00S 28°40' E 088°15'0 0.0 1024.5 22.8
2017-Jan-16 14:00S 28°40' E 088°15'1 0.6 1024.2 22.8
2017-Jan-16 12:00S 28°40' E 088°16'6 1.4 1023.1 22.9
2017-Jan-16 08:00S 28°46' E 088°19'2 0.4 1023.9 22.9
2017-Jan-16 02:00S 28°44' E 088°21'0 0.0 1025.4 22.9
2017-Jan-16 01:00S 28°44' E 088°21'1 0.5 1025.0 22.9
2017-Jan-16 00:00S 28°44' E 088°22'0 0.0 1024.6 22.9
2017-Jan-15 23:00S 28°44' E 088°22'2 0.8 1024.4 22.9
2017-Jan-15 21:00S 28°44' E 088°23'1 1.1 1023.8 22.9
2017-Jan-15 20:00S 28°44' E 088°25'5 1.1 1024.3 22.9
2017-Jan-15 16:00S 28°46' E 088°29'0 0.0 1024.7 22.9
2017-Jan-15 15:00S 28°46' E 088°29'1 0.5 1024.4 22.9
2017-Jan-15 14:00S 28°46' E 088°30'2 1.2 1023.7 22.9
2017-Jan-15 12:00S 28°47' E 088°32'0 0.0 1022.7 23.0
2017-Jan-15 11:00S 28°47' E 088°32'1 0.8 1022.4 23.0
2017-Jan-15 10:00S 28°48' E 088°33'8 1.0 1022.3 23.0
2017-Jan-15 02:00S 28°53' E 088°40'1 1.1 1023.5 22.9
2017-Jan-15 01:00S 28°53' E 088°41'0 0.0 1023.3 22.9
2017-Jan-15 00:00S 28°53' E 088°41'3 1.0 1022.6 23.0
2017-Jan-14 21:00S 28°55' E 088°44'0 0.0 1020.7 23.0
2017-Jan-14 20:00S 28°55' E 088°44'7 1.3 1021.0 23.1
2017-Jan-14 15:00S 28°59' E 088°50'1 1.3 1020.7 23.2
2017-Jan-14 14:00S 29°00' E 088°50'2 0.7 1020.4 23.2
2017-Jan-14 11:00S 29°01' E 088°52'1 0.5 1018.7 23.3
2017-Jan-14 10:00S 29°01' E 088°53'1 0.6 1018.5 23.3
2017-Jan-14 09:00S 29°02' E 088°53'8 0.9 1018.5 23.4
2017-Jan-14 01:00S 29°07' E 088°59'0 0.0 1016.7 23.2
2017-Jan-14 00:00S 29°07' E 088°59'2 1.0 1016.1 23.2
2017-Jan-13 22:00S 29°08' E 089°01'2 1.7 1014.8 23.2
2017-Jan-13 21:00S 29°09' E 089°02'0 0.0 1014.4 23.2
2017-Jan-13 20:00S 29°09' E 089°02'6 1.1 1014.4 23.2
2017-Jan-13 14:00S 29°14' E 089°07'0 0.0 1014.5 23.2
2017-Jan-13 12:00S 29°14' E 089°07'3 1.3 1013.9 23.2
2017-Jan-13 10:00S 29°16' E 089°08'4 0.6 1013.7 23.3
2017-Jan-13 04:00S 29°19' E 089°11'2 1.0 1015.4 23.1
2017-Jan-13 02:00S 29°20' E 089°13'0 0.0 1015.6 22.9
2017-Jan-13 01:00S 29°20' E 089°13'1 0.6 1015.5 22.9
2017-Jan-13 00:00S 29°21' E 089°13'1 0.6 1015.3 22.9
2017-Jan-12 23:00S 29°22' E 089°13'1 0.6 1014.9 22.9
2017-Jan-12 22:00S 29°21' E 089°13'2 1.6 1014.6 22.9
2017-Jan-12 21:00S 29°22' E 089°14'2 0.5 1014.7 22.9
2017-Jan-12 17:00S 29°23' E 089°16'1 0.6 1017.0 23.1
2017-Jan-12 16:00S 29°24' E 089°16'1 0.5 1017.2 23.2
2017-Jan-12 15:00S 29°24' E 089°16'0 0.0 1017.3 23.2
2017-Jan-12 14:00S 29°24' E 089°16'2 1.2 1017.1 23.4
2017-Jan-12 12:00S 29°26' E 089°18'2 1.8 1016.5 23.5
2017-Jan-12 11:00S 29°28' E 089°18'0 0.0 1016.5 23.5
2017-Jan-12 10:00S 29°28' E 089°18'3 2.9 1016.8 23.5
2017-Jan-12 09:00S 29°30' E 089°20'0 0.0 1017.3 23.4
2017-Jan-12 04:00S 29°30' E 089°20'1 1.3 1020.2 22.9
2017-Jan-12 03:00S 29°31' E 089°20'1 0.3 1020.1 22.9
2017-Jan-12 01:00S 29°32' E 089°20'0 0.0 1019.9 22.8
2017-Jan-12 00:00S 29°32' E 089°20'0 0.0 1019.6 22.8
2017-Jan-11 23:00S 29°32' E 089°20'4 0.7 1019.1 22.9
2017-Jan-11 18:00S 29°34' E 089°23'0 0.0 1020.6 22.9
2017-Jan-11 17:00S 29°34' E 089°23'1 0.8 1021.2 22.9
2017-Jan-11 16:00S 29°35' E 089°24'0 0.0 1021.3 22.9
2017-Jan-11 15:00S 29°35' E 089°24'2 0.8 1021.2 23.0
2017-Jan-11 13:00S 29°36' E 089°25'0 0.0 1020.5 23.2
2017-Jan-11 12:00S 29°36' E 089°25'1 1.2 1019.9 23.2
2017-Jan-11 11:00S 29°37' E 089°25'0 0.0 1019.7 23.2
2017-Jan-11 10:00S 29°37' E 089°25'2 2.5 1019.6 23.3
2017-Jan-11 09:00S 29°40' E 089°26'1 0.1 1019.6 23.3
2017-Jan-11 03:00S 29°40' E 089°26'2 1.6 1020.1 23.4
2017-Jan-11 02:00S 29°40' E 089°28'1 1.0 1019.7 23.4
2017-Jan-11 01:00S 29°40' E 089°26'1 0.6 1019.4 23.4
2017-Jan-11 00:00S 29°41' E 089°26'1 0.4 1019.0 23.3
2017-Jan-10 22:00S 29°41' E 089°27'0 0.0 1018.3 23.3
2017-Jan-10 21:00S 29°41' E 089°27'1 0.7 1018.4 23.3
2017-Jan-10 19:00S 29°43' E 089°28'1 0.6 1019.1 23.3
2017-Jan-10 18:00S 29°43' E 089°28'1 0.7 1019.7 23.4
2017-Jan-10 16:00S 29°44' E 089°28'2 0.6 1020.2 23.6
2017-Jan-10 13:00S 29°46' E 089°28'0 0.0 1019.0 24.6
2017-Jan-10 12:00S 29°46' E 089°28'1 1.2 1018.6 24.6
2017-Jan-10 11:00S 29°47' E 089°28'3 0.4 1018.6 26.2
2017-Jan-10 03:00S 29°50' E 089°26'1 0.7 1019.8 23.4
2017-Jan-10 01:00S 29°51' E 089°26'0 0.0 1019.4 23.2
2017-Jan-10 00:00S 29°51' E 089°26'0 0.0 1019.1 23.3
2017-Jan-09 23:00S 29°51' E 089°26'1 0.6 1018.6 23.3
2017-Jan-09 22:00S 29°52' E 089°26'   1018.6 23.3

Dump ship's entire track history